createdAt,value
2023-02-02T00:00:58.194Z,2.89
2023-02-02T00:03:51.310Z,2.88
2023-02-02T00:06:43.438Z,2.84
2023-02-02T00:09:35.591Z,2.80
2023-02-02T00:12:28.339Z,2.75
2023-02-02T00:15:20.525Z,2.73
2023-02-02T00:18:12.929Z,2.71
2023-02-02T00:21:05.149Z,2.69
2023-02-02T00:23:57.943Z,2.69
2023-02-02T00:26:51.969Z,2.69
2023-02-02T00:29:44.734Z,2.66
2023-02-02T00:32:36.829Z,2.65
2023-02-02T00:35:09.850Z,2.65
2023-02-02T00:37:44.525Z,2.65
2023-02-02T00:40:36.582Z,2.66
2023-02-02T00:43:28.702Z,2.65
2023-02-02T00:46:21.400Z,2.65
2023-02-02T00:49:13.568Z,2.64
2023-02-02T00:51:48.742Z,2.64
2023-02-02T00:54:41.094Z,2.62
2023-02-02T00:57:33.166Z,2.62
2023-02-02T01:00:26.843Z,2.62
2023-02-02T01:03:18.909Z,2.61
2023-02-02T01:06:01.084Z,2.62
2023-02-02T01:08:53.206Z,2.63
2023-02-02T01:11:34.705Z,2.68
2023-02-02T01:14:26.859Z,2.70
2023-02-02T01:17:19.387Z,2.72
2023-02-02T01:20:17.202Z,2.73
2023-02-02T01:23:09.281Z,2.74
2023-02-02T01:26:03.485Z,2.74
2023-02-02T01:28:55.615Z,2.76
2023-02-02T01:31:48.309Z,2.76
2023-02-02T01:34:41.738Z,2.79
2023-02-02T01:37:33.825Z,2.82
2023-02-02T01:40:25.949Z,2.84
2023-02-02T01:43:25.694Z,2.84
2023-02-02T01:46:11.708Z,2.87
2023-02-02T01:49:08.818Z,2.89
2023-02-02T01:52:02.010Z,2.92
2023-02-02T01:54:56.939Z,2.95
2023-02-02T01:57:52.525Z,2.96
2023-02-02T02:00:47.091Z,2.96
2023-02-02T02:03:40.156Z,2.97
2023-02-02T02:06:32.507Z,2.99
2023-02-02T02:09:24.672Z,3.02
2023-02-02T02:12:18.255Z,3.03
2023-02-02T02:15:30.047Z,3.05
2023-02-02T02:18:46.859Z,3.07
2023-02-02T02:22:04.163Z,3.07
2023-02-02T02:25:34.533Z,3.04
2023-02-02T02:28:44.435Z,3.04
2023-02-02T02:31:38.618Z,3.07
2023-02-02T02:34:44.048Z,3.07
2023-02-02T02:37:46.506Z,3.06
2023-02-02T02:40:42.667Z,3.07
2023-02-02T02:43:40.773Z,3.07
2023-02-02T02:46:33.878Z,3.08
2023-02-02T02:49:26.058Z,3.09
2023-02-02T02:52:18.316Z,3.12
2023-02-02T02:55:13.012Z,3.12
2023-02-02T02:58:12.006Z,3.14
2023-02-02T03:01:15.703Z,3.14
2023-02-02T03:04:19.684Z,3.15
2023-02-02T03:07:18.743Z,3.15
2023-02-02T03:10:14.461Z,3.17
2023-02-02T03:13:11.365Z,3.17
2023-02-02T03:15:47.405Z,3.19
2023-02-02T03:18:40.296Z,3.20
2023-02-02T03:21:32.693Z,3.20
2023-02-02T03:24:24.879Z,3.21
2023-02-02T03:27:16.948Z,3.22
2023-02-02T03:30:00.711Z,3.21
2023-02-02T03:32:53.384Z,3.22
2023-02-02T03:35:45.716Z,3.22
2023-02-02T03:38:37.868Z,3.23
2023-02-02T03:41:30.058Z,3.23
2023-02-02T03:44:22.156Z,3.23
2023-02-02T03:47:01.307Z,3.23
2023-02-02T03:49:53.403Z,3.23
2023-02-02T03:52:45.466Z,3.24
2023-02-02T03:55:39.095Z,3.23
2023-02-02T03:58:31.312Z,3.21
2023-02-02T04:01:08.328Z,3.20
2023-02-02T04:04:00.791Z,3.20
2023-02-02T04:06:52.826Z,3.20
2023-02-02T04:09:35.094Z,3.19
2023-02-02T04:12:27.209Z,3.20
2023-02-02T04:15:02.046Z,3.21
2023-02-02T04:17:54.258Z,3.21
2023-02-02T04:20:46.270Z,3.18
2023-02-02T04:23:39.185Z,3.17
2023-02-02T04:26:16.157Z,3.16
2023-02-02T04:29:08.516Z,3.16
2023-02-02T04:31:49.193Z,3.15
2023-02-02T04:34:41.293Z,3.15
2023-02-02T04:37:34.647Z,3.17
2023-02-02T04:40:27.142Z,3.17
2023-02-02T04:43:19.249Z,3.16
2023-02-02T04:46:11.460Z,3.16
2023-02-02T04:49:03.653Z,3.17
2023-02-02T04:51:55.796Z,3.19
2023-02-02T04:54:47.980Z,3.20
2023-02-02T04:57:40.108Z,3.20
2023-02-02T05:00:32.346Z,3.19
2023-02-02T05:03:15.010Z,3.19
2023-02-02T05:06:08.322Z,3.18
2023-02-02T05:09:01.345Z,3.16
2023-02-02T05:11:53.648Z,3.14
2023-02-02T05:14:45.768Z,3.15
2023-02-02T05:17:37.930Z,3.17
2023-02-02T05:20:30.055Z,3.17
2023-02-02T05:23:22.241Z,3.18
2023-02-02T05:25:57.999Z,3.17
2023-02-02T05:28:50.346Z,3.16
2023-02-02T05:31:42.472Z,3.18
2023-02-02T05:34:16.582Z,3.19
2023-02-02T05:37:08.706Z,3.21
2023-02-02T05:40:00.773Z,3.22
2023-02-02T05:42:52.838Z,3.22
2023-02-02T05:45:45.076Z,3.23
2023-02-02T05:48:37.220Z,3.23
2023-02-02T05:51:31.045Z,3.23
2023-02-02T05:54:23.161Z,3.22
2023-02-02T05:57:15.282Z,3.24
2023-02-02T06:00:09.558Z,3.24
2023-02-02T06:03:01.801Z,3.25
2023-02-02T06:05:44.030Z,3.27
2023-02-02T06:08:36.304Z,3.28
2023-02-02T06:11:28.472Z,3.28
2023-02-02T06:14:20.727Z,3.30
2023-02-02T06:17:12.905Z,3.31
2023-02-02T06:19:56.177Z,3.33
2023-02-02T06:22:48.571Z,3.34
2023-02-02T06:25:40.603Z,3.36
2023-02-02T06:28:21.821Z,3.37
2023-02-02T06:31:15.630Z,3.40
2023-02-02T06:34:08.387Z,3.42
2023-02-02T06:37:00.561Z,3.44
2023-02-02T06:39:52.724Z,3.43
2023-02-02T06:42:27.448Z,3.43
2023-02-02T06:44:59.383Z,3.42
2023-02-02T06:47:51.496Z,3.43
2023-02-02T06:50:43.616Z,3.43
2023-02-02T06:53:36.519Z,3.42
2023-02-02T06:56:28.783Z,3.40
2023-02-02T06:59:21.832Z,3.39
2023-02-02T07:02:15.408Z,3.36
2023-02-02T07:05:08.177Z,3.33
2023-02-02T07:08:00.300Z,3.27
2023-02-02T07:11:11.765Z,3.23
2023-02-02T07:14:00.812Z,3.18
2023-02-02T07:16:53.052Z,3.12
2023-02-02T07:19:45.128Z,3.09
2023-02-02T07:22:39.128Z,3.07
2023-02-02T07:25:22.088Z,3.05
2023-02-02T07:28:14.586Z,3.00
2023-02-02T07:31:17.529Z,2.97
2023-02-02T07:34:09.665Z,2.92
2023-02-02T07:37:01.930Z,2.87
2023-02-02T07:39:40.165Z,2.84
2023-02-02T07:42:32.287Z,2.82
2023-02-02T07:45:27.390Z,2.80
2023-02-02T07:48:20.040Z,2.81
2023-02-02T07:51:15.670Z,2.85
2023-02-02T07:54:08.729Z,2.87
2023-02-02T07:57:02.172Z,2.87
2023-02-02T07:59:36.901Z,2.84
2023-02-02T08:02:12.209Z,2.81
2023-02-02T08:05:06.413Z,2.80
2023-02-02T08:07:58.489Z,2.79
2023-02-02T08:10:52.470Z,2.79
2023-02-02T08:13:29.700Z,2.79
2023-02-02T08:16:22.574Z,2.79
2023-02-02T08:19:00.310Z,2.80
2023-02-02T08:21:52.399Z,2.81
2023-02-02T08:24:44.640Z,2.81
2023-02-02T08:27:37.932Z,2.81
2023-02-02T08:30:30.269Z,2.82
2023-02-02T08:33:22.434Z,2.84
2023-02-02T08:36:17.433Z,2.83
2023-02-02T08:39:12.875Z,2.81
2023-02-02T08:42:05.058Z,2.78
2023-02-02T08:46:03.006Z,2.78
2023-02-02T08:48:12.088Z,2.78
2023-02-02T08:50:56.697Z,2.79
2023-02-02T08:53:49.567Z,2.81
2023-02-02T08:56:41.752Z,2.85
2023-02-02T08:59:33.888Z,2.88
2023-02-02T09:02:26.007Z,2.90
2023-02-02T09:05:18.804Z,2.90
2023-02-02T09:08:11.402Z,2.90
2023-02-02T09:11:08.442Z,2.92
2023-02-02T09:14:02.151Z,2.94
2023-02-02T09:16:54.637Z,2.95
2023-02-02T09:19:31.970Z,2.95
2023-02-02T09:22:24.067Z,2.97
2023-02-02T09:25:16.410Z,2.98
2023-02-02T09:28:08.602Z,2.97
2023-02-02T09:31:03.778Z,2.99
2023-02-02T09:33:45.452Z,3.00
2023-02-02T09:36:38.013Z,3.01
2023-02-02T09:39:30.351Z,3.02
2023-02-02T09:42:45.750Z,3.06
2023-02-02T09:45:46.972Z,3.10
2023-02-02T09:48:50.126Z,3.14
2023-02-02T09:51:47.325Z,3.16
2023-02-02T09:54:44.558Z,3.19
2023-02-02T09:57:30.307Z,3.24
2023-02-02T10:00:32.191Z,3.29
2023-02-02T10:03:32.708Z,3.33
2023-02-02T10:06:32.065Z,3.35
2023-02-02T10:09:34.411Z,3.36
2023-02-02T10:12:37.145Z,3.40
2023-02-02T10:15:39.091Z,3.41
2023-02-02T10:18:36.007Z,3.43
2023-02-02T10:21:36.481Z,3.43
2023-02-02T10:24:16.978Z,3.46
2023-02-02T10:27:15.127Z,3.48
2023-02-02T10:29:56.695Z,3.50
2023-02-02T10:32:58.515Z,3.55
2023-02-02T10:35:50.892Z,3.58
2023-02-02T10:38:42.486Z,3.63
2023-02-02T10:41:42.551Z,3.66
2023-02-02T10:44:43.629Z,3.74
2023-02-02T10:47:36.646Z,3.85
2023-02-02T10:50:29.263Z,3.91
2023-02-02T10:53:25.545Z,3.95
2023-02-02T10:56:06.027Z,3.98
2023-02-02T10:59:06.203Z,4.00
2023-02-02T11:02:03.742Z,4.04
2023-02-02T11:05:18.355Z,4.05
2023-02-02T11:08:19.238Z,4.09
2023-02-02T11:10:57.891Z,4.12
2023-02-02T11:13:54.712Z,4.13
2023-02-02T11:17:00.461Z,4.16
2023-02-02T11:19:55.666Z,4.19
2023-02-02T11:22:38.654Z,4.23
2023-02-02T11:25:34.675Z,4.24
2023-02-02T11:28:39.926Z,4.26
2023-02-02T11:31:39.383Z,4.27
2023-02-02T11:34:23.218Z,4.26
2023-02-02T11:37:21.301Z,4.25
2023-02-02T11:40:29.273Z,4.25
2023-02-02T11:43:26.769Z,4.26
2023-02-02T11:46:24.721Z,4.27
2023-02-02T11:49:19.707Z,4.29
2023-02-02T11:52:22.045Z,4.31
2023-02-02T11:55:19.346Z,4.31
2023-02-02T11:58:27.498Z,4.33
2023-02-02T12:01:28.407Z,4.35
2023-02-02T12:04:27.765Z,4.33
2023-02-02T12:07:28.787Z,4.37
2023-02-02T12:10:27.655Z,4.46
2023-02-02T12:13:30.830Z,4.50
2023-02-02T12:16:41.350Z,4.51
2023-02-02T12:19:57.413Z,4.51
2023-02-02T12:23:06.253Z,4.52
2023-02-02T12:26:23.115Z,4.53
2023-02-02T12:29:28.790Z,4.53
2023-02-02T12:32:36.711Z,4.51
2023-02-02T12:35:47.407Z,4.50
2023-02-02T12:38:41.509Z,4.51
2023-02-02T12:41:48.959Z,4.55
2023-02-02T12:44:29.837Z,4.58
2023-02-02T12:47:31.968Z,4.60
2023-02-02T12:50:32.689Z,4.63
2023-02-02T12:53:33.005Z,4.65
2023-02-02T12:56:34.283Z,4.66
2023-02-02T12:59:46.768Z,4.68
2023-02-02T13:02:37.847Z,4.70
2023-02-02T13:05:49.717Z,4.73
2023-02-02T13:08:49.125Z,4.75
2023-02-02T13:11:50.625Z,4.75
2023-02-02T13:14:26.561Z,4.74
2023-02-02T13:17:26.994Z,4.72
2023-02-02T13:20:25.168Z,4.72
2023-02-02T13:23:21.879Z,4.74
2023-02-02T13:26:19.533Z,4.80
2023-02-02T13:29:27.543Z,4.93
2023-02-02T13:32:26.002Z,5.13
2023-02-02T13:35:22.715Z,5.21
2023-02-02T13:38:21.189Z,5.28
2023-02-02T13:41:14.715Z,5.31
2023-02-02T13:44:13.732Z,5.35
2023-02-02T13:47:12.343Z,5.41
2023-02-02T13:50:12.293Z,5.49
2023-02-02T13:53:26.046Z,5.54
2023-02-02T13:56:37.483Z,5.58
2023-02-02T13:59:49.017Z,5.61
2023-02-02T14:02:45.393Z,5.65
2023-02-02T14:05:29.416Z,5.65
2023-02-02T14:08:25.352Z,5.63
2023-02-02T14:11:20.782Z,5.59
2023-02-02T14:14:34.469Z,5.55
2023-02-02T14:17:56.454Z,5.50
2023-02-02T14:20:52.052Z,5.48
2023-02-02T14:23:56.336Z,5.42
2023-02-02T14:26:50.733Z,5.38
2023-02-02T14:30:02.045Z,5.34
2023-02-02T14:32:54.247Z,5.32
2023-02-02T14:36:04.544Z,5.26
2023-02-02T14:39:12.629Z,5.24
2023-02-02T14:42:36.089Z,5.22
2023-02-02T14:45:32.530Z,5.21
2023-02-02T14:48:26.751Z,5.17
2023-02-02T14:51:21.944Z,5.11
2023-02-02T14:54:26.205Z,5.07
2023-02-02T14:57:32.548Z,5.03
2023-02-02T15:00:28.862Z,4.98
2023-02-02T15:03:50.137Z,4.94
2023-02-02T15:06:43.699Z,4.86
2023-02-02T15:09:42.499Z,4.82
2023-02-02T15:12:40.839Z,4.77
2023-02-02T15:15:37.063Z,4.69
2023-02-02T15:18:34.329Z,4.62
2023-02-02T15:21:28.189Z,4.54
2023-02-02T15:24:07.826Z,4.46
2023-02-02T15:27:03.065Z,4.39
2023-02-02T15:30:03.640Z,4.31
2023-02-02T15:32:56.727Z,4.28
2023-02-02T15:35:50.539Z,4.28
2023-02-02T15:38:44.506Z,4.29
2023-02-02T15:41:43.644Z,4.29
2023-02-02T15:44:28.262Z,4.29
2023-02-02T15:47:26.182Z,4.28
2023-02-02T15:50:21.313Z,4.28
2023-02-02T15:52:59.892Z,4.27
2023-02-02T15:55:52.499Z,4.25
2023-02-02T15:58:28.740Z,4.25
2023-02-02T16:01:23.142Z,4.25
2023-02-02T16:04:21.009Z,4.25
2023-02-02T16:07:18.080Z,4.24
2023-02-02T16:10:20.119Z,4.25
2023-02-02T16:13:27.576Z,4.24
2023-02-02T16:16:28.968Z,4.24
2023-02-02T16:19:25.345Z,4.24
2023-02-02T16:22:23.771Z,4.24
2023-02-02T16:25:21.994Z,4.24
2023-02-02T16:28:18.425Z,4.24
2023-02-02T16:31:10.872Z,4.23
2023-02-02T16:34:04.572Z,4.21
2023-02-02T16:37:14.114Z,4.20
2023-02-02T16:40:27.308Z,4.19
2023-02-02T16:43:22.273Z,4.16
2023-02-02T16:46:17.596Z,4.14
2023-02-02T16:49:19.467Z,4.08
2023-02-02T16:52:15.810Z,4.06
2023-02-02T16:55:12.146Z,4.01
2023-02-02T16:58:05.715Z,3.96
2023-02-02T17:01:13.958Z,3.93
2023-02-02T17:04:09.820Z,3.88
2023-02-02T17:07:11.597Z,3.84
2023-02-02T17:10:24.496Z,3.81
2023-02-02T17:13:41.991Z,3.75
2023-02-02T17:16:26.440Z,3.72
2023-02-02T17:19:18.785Z,3.67
2023-02-02T17:22:11.359Z,3.61
2023-02-02T17:25:03.619Z,3.54
2023-02-02T17:27:45.384Z,3.49
2023-02-02T17:30:38.372Z,3.43
2023-02-02T17:33:34.065Z,3.37
2023-02-02T17:36:26.999Z,3.32
2023-02-02T17:39:19.909Z,3.26
2023-02-02T17:42:21.881Z,3.20
2023-02-02T17:44:56.548Z,3.16
2023-02-02T17:47:48.889Z,3.11
2023-02-02T17:50:32.033Z,3.11
2023-02-02T17:53:25.094Z,3.11
2023-02-02T17:56:17.273Z,3.13
2023-02-02T17:59:09.519Z,3.16
2023-02-02T18:02:02.266Z,3.19
2023-02-02T18:04:54.444Z,3.22
2023-02-02T18:07:38.262Z,3.25
2023-02-02T18:10:30.366Z,3.28
2023-02-02T18:13:24.147Z,3.30
2023-02-02T18:16:16.820Z,3.32
2023-02-02T18:19:09.110Z,3.34
2023-02-02T18:22:01.207Z,3.36
2023-02-02T18:24:53.609Z,3.39
2023-02-02T18:27:46.656Z,3.39
2023-02-02T18:30:40.553Z,3.40
2023-02-02T18:33:32.915Z,3.43
2023-02-02T18:36:25.223Z,3.44
2023-02-02T18:39:17.507Z,3.44
2023-02-02T18:42:09.636Z,3.44
2023-02-02T18:45:02.094Z,3.43
2023-02-02T18:47:37.926Z,3.43
2023-02-02T18:50:14.170Z,3.43
2023-02-02T18:53:07.096Z,3.43
2023-02-02T18:55:59.200Z,3.41
2023-02-02T18:58:51.584Z,3.39
2023-02-02T19:01:45.029Z,3.40
2023-02-02T19:04:37.626Z,3.40
2023-02-02T19:07:47.430Z,3.41
2023-02-02T19:10:39.935Z,3.42
2023-02-02T19:13:32.141Z,3.43
2023-02-02T19:16:27.582Z,3.41
2023-02-02T19:19:30.767Z,3.41
2023-02-02T19:22:26.697Z,3.41
2023-02-02T19:25:19.400Z,3.41
2023-02-02T19:28:25.269Z,3.42
2023-02-02T19:31:18.186Z,3.40
2023-02-02T19:33:58.716Z,3.38
2023-02-02T19:36:51.279Z,3.35
2023-02-02T19:39:45.016Z,3.35
2023-02-02T19:42:22.789Z,3.33
2023-02-02T19:45:24.635Z,3.33
2023-02-02T19:48:18.006Z,3.31
2023-02-02T19:51:33.531Z,3.28
2023-02-02T19:54:28.002Z,3.26
2023-02-02T19:57:25.700Z,3.26
2023-02-02T20:00:22.975Z,3.27
2023-02-02T20:03:19.812Z,3.25
2023-02-02T20:06:17.896Z,3.25
2023-02-02T20:09:14.503Z,3.24
2023-02-02T20:12:21.524Z,3.25
2023-02-02T20:15:26.985Z,3.28
2023-02-02T20:18:05.573Z,3.29
2023-02-02T20:20:52.659Z,3.29
2023-02-02T20:23:42.140Z,3.28
2023-02-02T20:26:23.862Z,3.27
2023-02-02T20:29:01.057Z,3.25
2023-02-02T20:31:40.161Z,3.27
2023-02-02T20:34:34.502Z,3.24
2023-02-02T20:37:30.218Z,3.20
2023-02-02T20:40:27.949Z,3.17
2023-02-02T20:43:20.661Z,3.15
2023-02-02T20:46:13.032Z,3.14
2023-02-02T20:49:05.703Z,3.14
2023-02-02T20:51:59.741Z,3.13
2023-02-02T20:54:52.619Z,3.11
2023-02-02T20:57:44.873Z,3.12
2023-02-02T21:00:37.332Z,3.14
2023-02-02T21:03:29.737Z,3.14
2023-02-02T21:06:22.765Z,3.14
2023-02-02T21:09:15.825Z,3.15
2023-02-02T21:12:08.212Z,3.17
2023-02-02T21:15:00.814Z,3.17
2023-02-02T21:17:52.957Z,3.19
2023-02-02T21:20:45.013Z,3.19
2023-02-02T21:23:37.073Z,3.20
2023-02-02T21:26:30.917Z,3.20
2023-02-02T21:29:23.698Z,3.18
2023-02-02T21:31:59.499Z,3.18
2023-02-02T21:34:52.693Z,3.15
2023-02-02T21:37:46.752Z,3.13
2023-02-02T21:40:39.709Z,3.12
2023-02-02T21:43:34.230Z,3.10
2023-02-02T21:46:19.180Z,3.09
2023-02-02T21:49:19.684Z,3.08
2023-02-02T21:52:18.183Z,3.07
2023-02-02T21:55:32.248Z,3.07
2023-02-02T21:58:27.619Z,3.04
2023-02-02T22:01:27.302Z,3.04
2023-02-02T22:04:26.743Z,3.03
2023-02-02T22:07:18.939Z,2.99
2023-02-02T22:10:26.976Z,2.94
2023-02-02T22:13:21.278Z,2.90
2023-02-02T22:16:18.524Z,2.87
2023-02-02T22:19:30.669Z,2.83
2023-02-02T22:22:24.582Z,2.80
2023-02-02T22:25:29.178Z,2.80
2023-02-02T22:28:23.427Z,2.79
2023-02-02T22:31:15.670Z,2.78
2023-02-02T22:34:07.950Z,2.77
2023-02-02T22:37:00.155Z,2.77
2023-02-02T22:39:52.516Z,2.78
2023-02-02T22:42:44.914Z,2.79
2023-02-02T22:45:37.533Z,2.80
2023-02-02T22:48:29.599Z,2.80
2023-02-02T22:51:17.108Z,2.78
2023-02-02T22:54:09.290Z,2.78
2023-02-02T22:57:01.359Z,2.78
2023-02-02T22:59:53.396Z,2.78
2023-02-02T23:02:34.170Z,2.78
2023-02-02T23:05:27.507Z,2.78
2023-02-02T23:08:19.878Z,2.77
2023-02-02T23:11:12.041Z,2.75
2023-02-02T23:14:04.120Z,2.74
2023-02-02T23:16:56.306Z,2.73
2023-02-02T23:19:39.471Z,2.73
2023-02-02T23:22:20.208Z,2.73
2023-02-02T23:25:02.749Z,2.71
2023-02-02T23:27:55.040Z,2.70
2023-02-02T23:30:47.305Z,2.68
2023-02-02T23:33:39.542Z,2.67
2023-02-02T23:36:31.817Z,2.67
2023-02-02T23:39:23.986Z,2.68
2023-02-02T23:42:15.944Z,2.66
2023-02-02T23:45:09.045Z,2.64
2023-02-02T23:48:01.312Z,2.64
2023-02-02T23:50:53.884Z,2.62
2023-02-02T23:53:46.384Z,2.62
2023-02-02T23:56:38.553Z,2.61
2023-02-02T23:59:31.082Z,2.62
